createdAt,value
2023-02-28T00:01:46.942Z,1.10
2023-02-28T00:04:15.053Z,1.10
2023-02-28T00:06:43.419Z,1.10
2023-02-28T00:09:11.530Z,1.10
2023-02-28T00:11:39.836Z,1.10
2023-02-28T00:14:07.961Z,1.10
2023-02-28T00:16:37.509Z,1.10
2023-02-28T00:19:05.675Z,1.10
2023-02-28T00:21:33.837Z,1.10
2023-02-28T00:24:01.958Z,1.10
2023-02-28T00:26:30.271Z,1.10
2023-02-28T00:28:58.369Z,1.10
2023-02-28T00:31:27.000Z,1.00
2023-02-28T00:33:56.665Z,1.10
2023-02-28T00:36:24.788Z,1.00
2023-02-28T00:38:52.929Z,1.10
2023-02-28T00:41:21.216Z,1.10
2023-02-28T00:43:49.572Z,1.10
2023-02-28T00:46:18.095Z,1.10
2023-02-28T00:48:46.266Z,1.10
2023-02-28T00:51:15.714Z,1.00
2023-02-28T00:53:43.898Z,1.10
2023-02-28T00:56:12.281Z,1.20
2023-02-28T00:58:40.375Z,1.20
2023-02-28T01:01:09.102Z,1.20
2023-02-28T01:03:37.588Z,1.20
2023-02-28T01:06:06.702Z,1.10
2023-02-28T01:08:36.493Z,1.20
2023-02-28T01:11:11.482Z,1.20
2023-02-28T01:13:39.846Z,1.20
2023-02-28T01:16:09.522Z,1.10
2023-02-28T01:18:38.454Z,1.00
2023-02-28T01:21:07.803Z,1.00
2023-02-28T01:23:37.712Z,1.00
2023-02-28T01:26:07.847Z,1.10
2023-02-28T01:28:36.710Z,0.90
2023-02-28T01:31:05.218Z,1.10
2023-02-28T01:33:34.205Z,1.00
2023-02-28T01:36:04.109Z,1.00
2023-02-28T01:38:32.874Z,0.90
2023-02-28T01:41:03.294Z,0.90
2023-02-28T01:43:53.841Z,0.90
2023-02-28T01:46:22.409Z,0.90
2023-02-28T01:48:58.571Z,0.90
2023-02-28T01:51:33.661Z,0.90
2023-02-28T01:54:07.523Z,1.00
2023-02-28T01:56:38.951Z,1.00
2023-02-28T01:59:07.439Z,1.00
2023-02-28T02:01:35.571Z,1.10
2023-02-28T02:04:05.885Z,1.00
2023-02-28T02:06:42.369Z,0.90
2023-02-28T02:09:10.593Z,0.90
2023-02-28T02:11:44.100Z,0.90
2023-02-28T02:14:45.655Z,0.90
2023-02-28T02:17:28.218Z,0.90
2023-02-28T02:20:59.653Z,0.90
2023-02-28T02:24:11.291Z,0.90
2023-02-28T02:27:05.538Z,0.80
2023-02-28T02:29:56.683Z,0.80
2023-02-28T02:33:06.302Z,0.70
2023-02-28T02:35:44.896Z,0.70
2023-02-28T02:38:26.269Z,0.80
2023-02-28T02:41:08.459Z,0.70
2023-02-28T02:43:44.116Z,0.70
2023-02-28T02:46:18.681Z,0.70
2023-02-28T02:48:49.706Z,0.70
2023-02-28T02:51:25.088Z,0.60
2023-02-28T02:53:59.831Z,0.60
2023-02-28T02:56:33.544Z,0.60
2023-02-28T02:59:08.535Z,0.50
2023-02-28T03:01:40.610Z,0.50
2023-02-28T03:04:13.788Z,0.50
2023-02-28T03:06:43.546Z,0.50
2023-02-28T03:09:11.650Z,0.40
2023-02-28T03:11:42.791Z,0.30
2023-02-28T03:14:32.795Z,0.30
2023-02-28T03:17:33.111Z,0.30
2023-02-28T03:20:16.915Z,0.10
2023-02-28T03:23:03.638Z,0.10
2023-02-28T03:25:41.707Z,-0.10
2023-02-28T03:28:20.675Z,-0.10
2023-02-28T03:30:56.565Z,-0.10
2023-02-28T03:33:32.303Z,-0.10
2023-02-28T03:36:09.230Z,-0.10
2023-02-28T03:38:46.306Z,-0.10
2023-02-28T03:41:20.477Z,-0.20
2023-02-28T03:43:57.189Z,-0.10
2023-02-28T03:46:33.320Z,-0.20
2023-02-28T03:49:13.402Z,-0.20
2023-02-28T03:51:45.337Z,-0.20
2023-02-28T03:54:21.379Z,-0.20
2023-02-28T03:56:57.456Z,-0.30
2023-02-28T03:59:32.249Z,-0.30
2023-02-28T04:02:00.972Z,-0.30
2023-02-28T04:04:29.301Z,-0.30
2023-02-28T04:07:05.443Z,-0.20
2023-02-28T04:09:35.040Z,-0.20
2023-02-28T04:12:03.181Z,-0.20
2023-02-28T04:14:31.358Z,-0.10
2023-02-28T04:16:59.529Z,0.00
2023-02-28T04:19:27.665Z,0.00
2023-02-28T04:21:56.130Z,0.00
2023-02-28T04:24:29.710Z,0.00
2023-02-28T04:27:00.201Z,0.10
2023-02-28T04:29:30.657Z,0.10
2023-02-28T04:32:01.277Z,0.10
2023-02-28T04:34:31.762Z,0.10
2023-02-28T04:37:16.505Z,0.10
2023-02-28T04:39:45.486Z,0.20
2023-02-28T04:42:15.630Z,0.20
2023-02-28T04:44:43.734Z,0.20
2023-02-28T04:47:11.852Z,0.20
2023-02-28T04:49:40.116Z,0.10
2023-02-28T04:52:10.942Z,0.10
2023-02-28T04:54:40.023Z,0.20
2023-02-28T04:57:08.406Z,0.10
2023-02-28T04:59:37.882Z,0.10
2023-02-28T05:02:07.961Z,-0.10
2023-02-28T05:04:36.528Z,-0.10
2023-02-28T05:07:05.170Z,-0.10
2023-02-28T05:09:34.056Z,-0.10
2023-02-28T05:12:02.172Z,0.20
2023-02-28T05:14:30.302Z,0.10
2023-02-28T05:16:59.806Z,0.10
2023-02-28T05:19:27.950Z,0.10
2023-02-28T05:21:57.547Z,0.00
2023-02-28T05:24:25.857Z,0.00
2023-02-28T05:26:56.039Z,0.00
2023-02-28T05:29:24.829Z,-0.10
2023-02-28T05:31:53.065Z,-0.10
2023-02-28T05:34:22.728Z,-0.10
2023-02-28T05:36:50.867Z,-0.10
2023-02-28T05:39:19.308Z,-0.20
2023-02-28T05:41:47.416Z,-0.20
2023-02-28T05:44:15.767Z,-0.30
2023-02-28T05:46:43.917Z,-0.40
2023-02-28T05:49:12.267Z,-0.40
2023-02-28T05:51:41.707Z,-0.40
2023-02-28T05:54:11.922Z,-0.50
2023-02-28T05:56:41.648Z,-0.50
2023-02-28T05:59:09.801Z,-0.40
2023-02-28T06:01:40.828Z,-0.40
2023-02-28T06:04:22.396Z,-0.50
2023-02-28T06:06:59.127Z,-0.50
2023-02-28T06:09:27.433Z,-0.40
2023-02-28T06:11:55.546Z,-0.40
2023-02-28T06:14:23.778Z,-0.40
2023-02-28T06:16:52.050Z,-0.40
2023-02-28T06:19:20.436Z,-0.40
2023-02-28T06:21:54.234Z,-0.50
2023-02-28T06:24:25.536Z,-0.40
2023-02-28T06:26:53.797Z,-0.40
2023-02-28T06:29:22.198Z,-0.40
2023-02-28T06:31:50.720Z,-0.40
2023-02-28T06:34:19.293Z,-0.40
2023-02-28T06:36:47.640Z,-0.20
2023-02-28T06:39:15.852Z,-0.30
2023-02-28T06:41:54.686Z,-0.20
2023-02-28T06:44:25.445Z,-0.20
2023-02-28T06:46:53.874Z,-0.10
2023-02-28T06:49:22.032Z,-0.10
2023-02-28T06:51:50.872Z,0.00
2023-02-28T06:54:19.019Z,0.00
2023-02-28T06:56:48.784Z,0.10
2023-02-28T06:59:16.932Z,0.10
2023-02-28T07:01:45.458Z,0.10
2023-02-28T07:04:14.164Z,0.20
2023-02-28T07:06:42.619Z,0.30
2023-02-28T07:09:11.645Z,0.40
2023-02-28T07:11:40.062Z,0.50
2023-02-28T07:14:10.229Z,0.60
2023-02-28T07:16:38.528Z,0.60
2023-02-28T07:19:07.132Z,0.70
2023-02-28T07:21:35.455Z,0.90
2023-02-28T07:24:03.518Z,0.90
2023-02-28T07:26:31.675Z,1.00
2023-02-28T07:28:59.803Z,1.10
2023-02-28T07:31:29.762Z,1.20
2023-02-28T07:33:58.298Z,1.20
2023-02-28T07:36:26.486Z,1.30
2023-02-28T07:38:54.620Z,1.40
2023-02-28T07:41:25.709Z,1.40
2023-02-28T07:43:56.386Z,1.50
2023-02-28T07:46:24.733Z,1.60
2023-02-28T07:48:56.044Z,1.60
2023-02-28T07:51:25.108Z,1.60
2023-02-28T07:53:53.244Z,1.70
2023-02-28T07:56:21.574Z,1.70
2023-02-28T07:58:49.811Z,1.90
2023-02-28T08:01:18.292Z,2.10
2023-02-28T08:03:46.458Z,2.20
2023-02-28T08:06:22.262Z,2.40
2023-02-28T08:08:50.842Z,2.40
2023-02-28T08:11:19.692Z,2.50
2023-02-28T08:13:48.147Z,2.60
2023-02-28T08:16:22.168Z,2.80
2023-02-28T08:18:52.096Z,2.80
2023-02-28T08:21:22.905Z,2.80
2023-02-28T08:23:53.138Z,2.80
2023-02-28T08:26:22.545Z,2.90
2023-02-28T08:28:51.486Z,2.90
2023-02-28T08:31:20.161Z,3.00
2023-02-28T08:33:49.636Z,3.00
2023-02-28T08:36:18.028Z,3.10
2023-02-28T08:38:47.729Z,3.30
2023-02-28T08:41:15.841Z,3.40
2023-02-28T08:43:44.117Z,3.40
2023-02-28T08:46:15.523Z,3.50
2023-02-28T08:48:44.706Z,3.60
2023-02-28T08:51:17.195Z,3.60
2023-02-28T08:53:47.448Z,3.60
2023-02-28T08:56:18.318Z,3.60
2023-02-28T08:58:48.371Z,3.40
2023-02-28T09:01:19.404Z,3.40
2023-02-28T09:03:50.723Z,3.40
2023-02-28T09:06:21.334Z,3.30
2023-02-28T09:08:51.425Z,3.40
2023-02-28T09:11:20.404Z,3.50
2023-02-28T09:13:48.774Z,3.50
2023-02-28T09:16:18.537Z,3.60
2023-02-28T09:18:47.377Z,3.60
2023-02-28T09:21:19.261Z,3.60
2023-02-28T09:23:51.141Z,3.80
2023-02-28T09:26:22.146Z,3.90
2023-02-28T09:28:51.536Z,3.80
2023-02-28T09:31:23.068Z,3.90
2023-02-28T09:33:51.840Z,4.10
2023-02-28T09:36:22.070Z,4.30
2023-02-28T09:38:53.957Z,4.20
2023-02-28T09:41:26.297Z,4.20
2023-02-28T09:43:59.016Z,4.20
2023-02-28T09:46:36.021Z,4.10
2023-02-28T09:49:09.629Z,4.00
2023-02-28T09:51:51.929Z,3.90
2023-02-28T09:54:24.559Z,3.80
2023-02-28T09:56:58.311Z,3.70
2023-02-28T09:59:46.347Z,3.70
2023-02-28T10:02:42.795Z,3.70
2023-02-28T10:05:16.023Z,3.90
2023-02-28T10:08:05.920Z,4.00
2023-02-28T10:10:43.068Z,4.20
2023-02-28T10:13:26.277Z,4.40
2023-02-28T10:16:00.216Z,4.70
2023-02-28T10:18:37.099Z,4.60
2023-02-28T10:21:06.353Z,4.60
2023-02-28T10:23:39.208Z,4.60
2023-02-28T10:26:16.974Z,4.80
2023-02-28T10:28:46.170Z,4.90
2023-02-28T10:31:21.051Z,5.00
2023-02-28T10:33:50.181Z,4.90
2023-02-28T10:36:21.170Z,4.80
2023-02-28T10:38:51.121Z,4.70
2023-02-28T10:41:35.569Z,4.70
2023-02-28T10:44:22.409Z,4.70
2023-02-28T10:46:52.793Z,4.70
2023-02-28T10:49:25.306Z,4.80
2023-02-28T10:51:58.838Z,5.00
2023-02-28T10:54:35.997Z,5.00
2023-02-28T10:57:25.373Z,4.90
2023-02-28T10:59:55.882Z,4.90
2023-02-28T11:02:38.338Z,5.00
2023-02-28T11:05:26.645Z,5.00
2023-02-28T11:07:56.848Z,5.10
2023-02-28T11:10:33.457Z,5.10
2023-02-28T11:13:04.589Z,5.10
2023-02-28T11:15:35.460Z,5.20
2023-02-28T11:18:24.807Z,5.20
2023-02-28T11:20:56.181Z,5.30
2023-02-28T11:23:28.545Z,5.20
2023-02-28T11:26:01.888Z,5.20
2023-02-28T11:28:34.371Z,5.30
2023-02-28T11:31:10.543Z,5.20
2023-02-28T11:33:46.140Z,5.20
2023-02-28T11:36:20.945Z,5.10
2023-02-28T11:38:51.388Z,5.10
2023-02-28T11:41:41.373Z,5.10
2023-02-28T11:44:31.215Z,5.20
2023-02-28T11:47:06.874Z,5.30
2023-02-28T11:49:44.431Z,5.30
2023-02-28T11:52:29.220Z,5.30
2023-02-28T11:55:16.569Z,5.40
2023-02-28T11:58:11.792Z,5.50
2023-02-28T12:01:17.031Z,5.50
2023-02-28T12:04:02.806Z,5.40
2023-02-28T12:06:40.534Z,5.50
2023-02-28T12:09:35.156Z,5.50
2023-02-28T12:12:24.438Z,5.80
2023-02-28T12:15:35.361Z,6.40
2023-02-28T12:18:35.565Z,6.80
2023-02-28T12:21:16.844Z,6.80
2023-02-28T12:24:16.686Z,6.70
2023-02-28T12:26:47.375Z,6.30
2023-02-28T12:29:23.074Z,5.80
2023-02-28T12:31:58.051Z,5.50
2023-02-28T12:34:34.847Z,5.60
2023-02-28T12:37:12.194Z,5.60
2023-02-28T12:39:50.895Z,5.40
2023-02-28T12:42:30.075Z,5.50
2023-02-28T12:45:04.205Z,5.60
2023-02-28T12:47:32.380Z,5.60
2023-02-28T12:50:07.765Z,5.60
2023-02-28T12:52:48.772Z,5.60
2023-02-28T12:55:27.646Z,5.80
2023-02-28T12:58:10.403Z,6.00
2023-02-28T13:00:51.032Z,6.20
2023-02-28T13:03:58.783Z,6.00
2023-02-28T13:06:57.970Z,6.00
2023-02-28T13:09:26.975Z,6.00
2023-02-28T13:11:57.994Z,6.00
2023-02-28T13:14:31.308Z,6.00
2023-02-28T13:17:12.815Z,6.00
2023-02-28T13:19:45.863Z,5.90
2023-02-28T13:22:41.784Z,5.90
2023-02-28T13:25:54.401Z,6.00
2023-02-28T13:29:29.149Z,5.80
2023-02-28T13:32:39.518Z,5.70
2023-02-28T13:35:37.734Z,5.50
2023-02-28T13:38:39.748Z,5.40
2023-02-28T13:41:46.514Z,5.40
2023-02-28T13:44:18.050Z,5.40
2023-02-28T13:47:31.450Z,5.50
2023-02-28T13:50:30.673Z,5.50
2023-02-28T13:53:59.478Z,5.60
2023-02-28T13:56:51.038Z,5.70
2023-02-28T13:59:34.203Z,5.70
2023-02-28T14:02:36.660Z,5.60
2023-02-28T14:07:54.090Z,5.60
2023-02-28T14:10:33.553Z,5.60
2023-02-28T14:13:13.344Z,5.60
2023-02-28T14:15:49.337Z,5.50
2023-02-28T14:18:27.378Z,5.50
2023-02-28T14:21:05.735Z,5.40
2023-02-28T14:24:21.578Z,5.40
2023-02-28T14:27:10.284Z,5.30
2023-02-28T14:31:02.453Z,5.20
2023-02-28T14:33:49.419Z,5.10
2023-02-28T14:36:24.886Z,5.10
2023-02-28T14:38:57.298Z,5.10
2023-02-28T14:41:32.670Z,5.00
2023-02-28T14:44:04.050Z,4.90
2023-02-28T14:46:41.026Z,4.90
2023-02-28T14:49:17.851Z,4.90
2023-02-28T14:51:48.190Z,4.90
2023-02-28T14:54:24.795Z,4.90
2023-02-28T14:56:53.646Z,4.90
2023-02-28T14:59:33.048Z,4.90
2023-02-28T15:02:23.513Z,4.90
2023-02-28T15:05:00.378Z,4.80
2023-02-28T15:07:32.107Z,4.70
2023-02-28T15:10:19.913Z,4.60
2023-02-28T15:12:57.140Z,4.50
2023-02-28T15:15:51.588Z,4.50
2023-02-28T15:18:44.016Z,4.50
2023-02-28T15:21:18.962Z,4.50
2023-02-28T15:23:54.191Z,4.50
2023-02-28T15:26:27.963Z,4.50
2023-02-28T15:29:02.842Z,4.50
2023-02-28T15:31:55.408Z,4.50
2023-02-28T15:34:40.555Z,4.40
2023-02-28T15:37:42.580Z,4.30
2023-02-28T15:40:18.920Z,4.30
2023-02-28T15:43:06.906Z,4.30
2023-02-28T15:45:41.873Z,4.20
2023-02-28T15:48:23.804Z,4.10
2023-02-28T15:50:56.351Z,4.00
2023-02-28T15:53:28.207Z,4.10
2023-02-28T15:56:02.701Z,4.00
2023-02-28T15:58:31.953Z,4.00
2023-02-28T16:01:22.995Z,3.90
2023-02-28T16:03:56.790Z,3.80
2023-02-28T16:06:46.826Z,3.70
2023-02-28T16:09:17.898Z,3.80
2023-02-28T16:11:49.274Z,3.70
2023-02-28T16:14:24.043Z,3.70
2023-02-28T16:16:56.216Z,3.60
2023-02-28T16:19:25.925Z,3.60
2023-02-28T16:21:54.001Z,3.60
2023-02-28T16:24:22.095Z,3.50
2023-02-28T16:26:54.232Z,3.40
2023-02-28T16:29:28.177Z,3.40
2023-02-28T16:31:56.385Z,3.40
2023-02-28T16:34:26.726Z,3.30
2023-02-28T16:36:55.161Z,3.30
2023-02-28T16:39:23.374Z,3.20
2023-02-28T16:41:53.880Z,3.10
2023-02-28T16:44:31.079Z,3.00
2023-02-28T16:47:01.352Z,3.00
2023-02-28T16:49:31.731Z,2.90
2023-02-28T16:52:00.226Z,2.90
2023-02-28T16:54:28.516Z,2.80
2023-02-28T16:56:56.886Z,2.70
2023-02-28T16:59:28.354Z,2.60
2023-02-28T17:01:58.702Z,2.60
2023-02-28T17:04:27.723Z,2.50
2023-02-28T17:06:57.255Z,2.40
2023-02-28T17:09:40.105Z,2.40
2023-02-28T17:12:10.248Z,2.30
2023-02-28T17:14:38.659Z,2.20
2023-02-28T17:17:07.039Z,2.20
2023-02-28T17:19:36.913Z,2.20
2023-02-28T17:22:06.416Z,2.20
2023-02-28T17:24:34.501Z,2.10
2023-02-28T17:27:02.694Z,2.00
2023-02-28T17:29:30.870Z,2.00
2023-02-28T17:32:03.117Z,1.90
2023-02-28T17:34:38.178Z,1.80
2023-02-28T17:37:07.782Z,1.80
2023-02-28T17:39:35.990Z,1.80
2023-02-28T17:42:04.491Z,1.60
2023-02-28T17:44:32.728Z,1.70
2023-02-28T17:47:01.868Z,1.60
2023-02-28T17:49:29.984Z,1.60
2023-02-28T17:51:58.318Z,1.60
2023-02-28T17:54:27.932Z,1.60
2023-02-28T17:56:56.254Z,1.70
2023-02-28T17:59:24.333Z,1.70
2023-02-28T18:01:52.536Z,1.70
2023-02-28T18:04:20.671Z,1.70
2023-02-28T18:06:50.615Z,1.70
2023-02-28T18:09:22.863Z,1.70
2023-02-28T18:11:54.281Z,1.80
2023-02-28T18:14:26.281Z,1.80
2023-02-28T18:16:56.047Z,1.70
2023-02-28T18:19:25.048Z,1.70
2023-02-28T18:21:55.046Z,1.70
2023-02-28T18:24:25.016Z,1.70
2023-02-28T18:26:54.668Z,1.60
2023-02-28T18:29:25.961Z,1.50
2023-02-28T18:31:55.287Z,1.50
2023-02-28T18:34:25.622Z,1.40
2023-02-28T18:36:54.338Z,1.40
2023-02-28T18:39:22.526Z,1.40
2023-02-28T18:41:50.565Z,1.40
2023-02-28T18:44:21.416Z,1.30
2023-02-28T18:46:50.540Z,1.20
2023-02-28T18:49:19.078Z,1.20
2023-02-28T18:51:48.039Z,1.00
2023-02-28T18:54:18.071Z,0.90
2023-02-28T18:56:46.666Z,0.80
2023-02-28T18:59:15.075Z,0.80
2023-02-28T19:01:46.543Z,0.80
2023-02-28T19:04:15.404Z,0.80
2023-02-28T19:06:43.771Z,0.90
2023-02-28T19:09:12.072Z,0.80
2023-02-28T19:11:40.546Z,0.80
2023-02-28T19:14:09.435Z,0.80
2023-02-28T19:16:38.043Z,0.80
2023-02-28T19:19:07.699Z,0.80
2023-02-28T19:21:36.883Z,0.90
2023-02-28T19:24:05.755Z,1.10
2023-02-28T19:26:33.905Z,1.10
2023-02-28T19:29:05.023Z,1.10
2023-02-28T19:31:33.666Z,1.10
2023-02-28T19:34:02.422Z,1.10
2023-02-28T19:36:31.877Z,1.10
2023-02-28T19:39:00.166Z,1.00
2023-02-28T19:41:28.508Z,1.00
2023-02-28T19:43:57.121Z,0.90
2023-02-28T19:46:26.149Z,1.00
2023-02-28T19:48:55.271Z,0.90
2023-02-28T19:51:24.070Z,0.90
2023-02-28T19:53:53.826Z,0.90
2023-02-28T19:56:22.354Z,0.80
2023-02-28T19:58:50.428Z,0.70
2023-02-28T20:01:20.715Z,0.70
2023-02-28T20:03:50.425Z,0.70
2023-02-28T20:06:19.715Z,0.70
2023-02-28T20:08:47.833Z,0.70
2023-02-28T20:11:18.628Z,0.70
2023-02-28T20:13:47.170Z,0.70
2023-02-28T20:16:16.651Z,0.70
2023-02-28T20:18:46.104Z,0.70
2023-02-28T20:21:16.479Z,0.60
2023-02-28T20:23:48.488Z,0.60
2023-02-28T20:26:20.033Z,0.60
2023-02-28T20:28:49.039Z,0.50
2023-02-28T20:31:19.865Z,0.50
2023-02-28T20:33:50.566Z,0.60
2023-02-28T20:36:23.549Z,0.60
2023-02-28T20:38:53.942Z,0.60
2023-02-28T20:41:24.148Z,0.60
2023-02-28T20:43:58.116Z,0.60
2023-02-28T20:46:26.623Z,0.70
2023-02-28T20:48:54.889Z,0.70
2023-02-28T20:51:23.183Z,0.60
2023-02-28T20:53:51.354Z,0.50
2023-02-28T20:56:23.643Z,0.50
2023-02-28T20:58:57.444Z,0.40
2023-02-28T21:01:27.857Z,0.40
2023-02-28T21:03:59.436Z,0.40
2023-02-28T21:06:31.087Z,0.30
2023-02-28T21:09:00.475Z,0.20
2023-02-28T21:11:32.778Z,0.20
2023-02-28T21:14:05.232Z,0.10
2023-02-28T21:16:36.547Z,0.10
2023-02-28T21:19:05.891Z,-0.10
2023-02-28T21:21:38.335Z,-0.10
2023-02-28T21:24:07.279Z,0.00
2023-02-28T21:26:35.766Z,0.00
2023-02-28T21:29:05.441Z,0.10
2023-02-28T21:31:35.671Z,0.20
2023-02-28T21:34:07.081Z,0.20
2023-02-28T21:36:40.068Z,0.30
2023-02-28T21:39:13.494Z,0.30
2023-02-28T21:41:42.793Z,0.30
2023-02-28T21:44:18.216Z,0.40
2023-02-28T21:46:48.067Z,0.40
2023-02-28T21:49:17.703Z,0.30
2023-02-28T21:51:46.185Z,0.30
2023-02-28T21:54:14.961Z,0.30
2023-02-28T21:56:43.135Z,0.30
2023-02-28T21:59:12.760Z,0.20
2023-02-28T22:01:44.039Z,0.10
2023-02-28T22:04:20.909Z,0.00
2023-02-28T22:06:51.660Z,0.00
2023-02-28T22:09:20.779Z,-0.10
2023-02-28T22:11:49.100Z,-0.10
2023-02-28T22:14:19.542Z,-0.30
2023-02-28T22:16:53.729Z,-0.20
2023-02-28T22:19:23.574Z,-0.30
2023-02-28T22:21:53.690Z,-0.30
2023-02-28T22:24:24.231Z,-0.30
2023-02-28T22:26:53.933Z,-0.30
2023-02-28T22:29:23.861Z,-0.30
2023-02-28T22:31:52.540Z,-0.20
2023-02-28T22:34:20.743Z,-0.30
2023-02-28T22:36:48.994Z,-0.30
2023-02-28T22:39:17.573Z,-0.30
2023-02-28T22:41:45.882Z,-0.40
2023-02-28T22:44:14.058Z,-0.40
2023-02-28T22:46:43.824Z,-0.40
2023-02-28T22:49:12.043Z,-0.30
2023-02-28T22:51:40.312Z,-0.40
2023-02-28T22:54:08.441Z,-0.40
2023-02-28T22:56:36.851Z,-0.40
2023-02-28T22:59:05.375Z,-0.40
2023-02-28T23:01:35.446Z,-0.50
2023-02-28T23:04:05.578Z,-0.40
2023-02-28T23:06:37.763Z,-0.40
2023-02-28T23:09:09.382Z,-0.30
2023-02-28T23:11:41.401Z,-0.30
2023-02-28T23:14:12.701Z,-0.30
2023-02-28T23:16:44.242Z,-0.30
2023-02-28T23:19:17.247Z,-0.10
2023-02-28T23:21:46.794Z,0.00
2023-02-28T23:24:18.191Z,0.10
2023-02-28T23:26:51.027Z,0.00
2023-02-28T23:29:22.333Z,0.00
2023-02-28T23:31:51.226Z,0.00
2023-02-28T23:34:26.181Z,0.00
2023-02-28T23:36:55.785Z,0.00
2023-02-28T23:39:24.697Z,0.00
2023-02-28T23:41:52.890Z,-0.10
2023-02-28T23:44:21.035Z,-0.20
2023-02-28T23:46:51.899Z,-0.30
2023-02-28T23:49:23.397Z,-0.20
2023-02-28T23:51:54.564Z,-0.20
2023-02-28T23:54:23.241Z,-0.10
2023-02-28T23:56:51.626Z,-0.20
2023-02-28T23:59:19.787Z,-0.20
